Allentown, New Jersey
Current Conditions -  °F | °C
As of 7:03 PM on Saturday 25 Oct 2014 (Local Time) from KWRI Reporting Station
Clear Clear  
Wind Chill: 14°   Ceiling: Unl
Heat Index: 14°   Visibility: 10mi
Dew Point:   Wind: 6mph
Humidity: 67%   Direction: 220°SW
Pressure: 29.66"   Gusts: NA
Location:  40.18°N, 74.58°W
Report Text: KWRI 252303Z AUTO 22005KT 10SM CLR 14/08 A2966 RMK AO2
Loading
Personal Weather Stations






























Interactive Weather Map
Tropical Storm Tracking
New forecast layout! Learn more

10-Day Weather Forecast

Advertisements
Track Severe Weather on mobile